Time;durP1;ratioP1;P1;durP2;ratioP2;P2;SDS_P1;SDS_P2;PMS_P1;PMS_P2;Temp;Humidity;BMP_temperature;BMP_pressure;BME280_temperature;BME280_humidity;BME280_pressure;Samples;Min_cycle;Max_cycle;Signal;HPM_P1;HPM_P2
2023/10/10 00:02:06;;;;;;;36.13;8.52;;;12.10;99.90;;;;;;5069733;28;20029;-63
2023/10/10 00:04:33;;;;;;;27.73;8.35;;;12.10;99.90;;;;;;5068733;28;20816;-63
2023/10/10 00:07:01;;;;;;;27.05;8.65;;;12.10;99.90;;;;;;5069272;28;20060;-63
2023/10/10 00:09:27;;;;;;;28.98;8.05;;;12.10;99.90;;;;;;5068686;28;20147;-63
2023/10/10 00:11:53;;;;;;;26.92;7.95;;;12.10;99.90;;;;;;5065770;28;20056;-63
2023/10/10 00:14:19;;;;;;;29.80;8.02;;;12.00;99.90;;;;;;5068446;28;20468;-63
2023/10/10 00:16:47;;;;;;;28.13;8.07;;;12.00;99.90;;;;;;5050069;28;20120;-62
2023/10/10 00:19:28;;;;;;;22.15;8.00;;;12.00;99.90;;;;;;5047366;28;20025;-62
2023/10/10 00:21:54;;;;;;;22.52;7.18;;;11.90;99.90;;;;;;5049584;28;20029;-62
2023/10/10 00:24:21;;;;;;;25.77;7.28;;;11.90;99.90;;;;;;5054908;28;20021;-62
2023/10/10 00:26:50;;;;;;;28.38;7.60;;;11.90;99.90;;;;;;5049141;28;20131;-62
2023/10/10 00:29:23;;;;;;;25.80;7.75;;;11.80;99.90;;;;;;5048371;28;20029;-63
2023/10/10 00:31:55;;;;;;;30.63;7.90;;;11.80;99.90;;;;;;5049169;28;20029;-62
2023/10/10 00:34:28;;;;;;;24.73;7.20;;;11.80;99.90;;;;;;5048370;28;20036;-63
2023/10/10 00:36:53;;;;;;;33.60;9.73;;;11.80;99.90;;;;;;5068261;28;20135;-62
2023/10/10 00:41:52;;;;;;;28.25;8.35;;;11.80;99.90;;;;;;5068941;28;20078;-62
2023/10/10 00:44:19;;;;;;;33.75;8.18;;;11.70;99.90;;;;;;5066193;28;20032;-63
2023/10/10 00:46:51;;;;;;;29.65;7.85;;;11.70;99.90;;;;;;5048346;28;20033;-62
2023/10/10 00:49:23;;;;;;;29.30;7.38;;;11.80;99.90;;;;;;5048132;28;20037;-62
2023/10/10 00:51:51;;;;;;;30.42;8.35;;;11.80;99.90;;;;;;5048925;28;20035;-63
2023/10/10 00:56:54;;;;;;;26.30;8.07;;;11.70;99.90;;;;;;5068810;28;20043;-62
2023/10/10 00:59:20;;;;;;;26.55;8.02;;;11.60;99.90;;;;;;5067978;28;20059;-63
2023/10/10 01:01:47;;;;;;;24.75;7.20;;;11.50;99.90;;;;;;5068652;28;20037;-63
2023/10/10 01:04:13;;;;;;;28.17;7.78;;;11.50;99.90;;;;;;5068354;28;20029;-63
2023/10/10 01:06:41;;;;;;;23.08;7.40;;;11.50;99.90;;;;;;5061854;28;20114;-63
2023/10/10 01:09:20;;;;;;;20.63;6.75;;;11.50;99.90;;;;;;5048211;28;20541;-62
2023/10/10 01:11:50;;;;;;;32.20;8.52;;;11.50;99.90;;;;;;5048785;28;20032;-63
2023/10/10 01:14:24;;;;;;;23.70;6.72;;;11.50;99.90;;;;;;5047602;28;20219;-62
2023/10/10 01:16:54;;;;;;;21.40;6.63;;;11.50;99.90;;;;;;5028569;28;20185;-62
2023/10/10 01:19:21;;;;;;;28.20;8.15;;;11.50;99.90;;;;;;5045948;28;20048;-63
2023/10/10 01:21:57;;;;;;;28.40;8.48;;;11.50;99.90;;;;;;5042248;28;20033;-62
2023/10/10 01:24:26;;;;;;;30.80;7.88;;;11.50;99.90;;;;;;5027779;28;20051;-63
2023/10/10 01:26:53;;;;;;;29.42;6.95;;;11.40;99.90;;;;;;5028357;28;20496;-62
2023/10/10 01:29:25;;;;;;;24.60;6.97;;;11.40;99.90;;;;;;5027615;28;20030;-62
2023/10/10 01:31:58;;;;;;;24.70;7.38;;;11.40;99.90;;;;;;5048502;28;20116;-62
2023/10/10 01:34:31;;;;;;;34.50;8.02;;;11.30;99.90;;;;;;5067496;28;20027;-62
2023/10/10 01:37:22;;;;;;;25.60;7.82;;;11.30;99.90;;;;;;5067929;28;20056;-62
2023/10/10 01:39:56;;;;;;;31.17;8.55;;;11.30;99.90;;;;;;5068153;28;20089;-63
2023/10/10 01:42:31;;;;;;;23.38;6.93;;;11.30;99.90;;;;;;5067458;28;20021;-63
2023/10/10 01:45:04;;;;;;;27.00;7.53;;;11.30;99.90;;;;;;5049225;28;20404;-62
2023/10/10 01:47:34;;;;;;;19.05;7.43;;;11.10;99.90;;;;;;5047390;28;20037;-63
2023/10/10 01:50:00;;;;;;;;;;;11.00;99.90;;;;;;5048601;28;20061;-62
2023/10/10 01:52:27;;;;;;;18.90;6.82;;;11.00;99.90;;;;;;5047338;28;19909;-63
2023/10/10 01:54:53;;;;;;;23.45;6.68;;;11.00;99.90;;;;;;5048044;28;20389;-62
2023/10/10 01:57:24;;;;;;;25.27;7.28;;;10.90;99.90;;;;;;5060785;28;20037;-64
2023/10/10 01:59:51;;;;;;;;;;;10.90;99.90;;;;;;5052549;28;20024;-65
2023/10/10 02:02:21;;;;;;;26.58;6.93;;;11.00;99.90;;;;;;5052575;28;20274;-63
2023/10/10 02:04:47;;;;;;;22.45;6.60;;;11.00;99.90;;;;;;5051930;28;20366;-63
2023/10/10 02:07:23;;;;;;;19.42;7.00;;;10.90;99.90;;;;;;5051913;28;20029;-63
2023/10/10 02:12:38;;;;;;;23.58;6.60;;;10.90;99.90;;;;;;5055172;28;20349;-63
2023/10/10 02:15:11;;;;;;;24.35;6.88;;;10.90;99.90;;;;;;5066096;28;20094;-63
2023/10/10 02:17:39;;;;;;;20.77;6.43;;;10.90;99.90;;;;;;5050989;28;20096;-63
2023/10/10 02:20:33;;;;;;;24.73;7.28;;;10.90;99.90;;;;;;5051508;28;20120;-62
2023/10/10 02:23:09;;;;;;;22.13;7.00;;;10.90;99.90;;;;;;5051577;28;20051;-63
2023/10/10 02:28:08;;;;;;;30.70;7.35;;;10.90;99.90;;;;;;5071663;28;20059;-62
2023/10/10 02:30:34;;;;;;;27.20;6.75;;;10.80;99.90;;;;;;5051053;28;20428;-65
2023/10/10 02:35:55;;;;;;;21.58;6.50;;;10.80;99.90;;;;;;5064181;28;20102;-63
2023/10/10 02:38:31;;;;;;;25.33;6.78;;;10.80;99.90;;;;;;5069949;28;20041;-63
2023/10/10 02:41:23;;;;;;;20.67;6.85;;;10.80;99.90;;;;;;5071392;28;20059;-63
2023/10/10 02:44:10;;;;;;;24.60;7.10;;;10.70;99.90;;;;;;5071101;28;20020;-63
2023/10/10 02:46:38;;;;;;;27.45;5.88;;;10.60;99.90;;;;;;5053309;28;20032;-63
2023/10/10 02:49:37;;;;;;;29.58;6.22;;;10.60;99.90;;;;;;5071075;28;20032;-63
2023/10/10 02:51:58;;;;;;;24.25;7.32;;;10.50;99.90;;;;;;5070697;28;20114;-63
2023/10/10 02:54:31;;;;;;;25.30;6.75;;;10.50;99.90;;;;;;5069972;28;20033;-63
2023/10/10 02:59:50;;;;;;;24.50;6.63;;;10.30;99.90;;;;;;5042602;28;20095;-63
2023/10/10 03:02:40;;;;;;;25.80;6.72;;;10.20;99.90;;;;;;5051049;28;20032;-63
2023/10/10 03:05:06;;;;;;;18.27;6.05;;;10.10;99.90;;;;;;5050626;28;20099;-63
2023/10/10 03:07:33;;;;;;;23.95;6.55;;;10.10;99.90;;;;;;5057319;28;20045;-63
2023/10/10 03:12:30;;;;;;;23.85;5.97;;;10.20;99.90;;;;;;5069978;28;20033;-63
2023/10/10 03:15:12;;;;;;;22.85;6.47;;;10.20;99.90;;;;;;5066044;28;20120;-63
2023/10/10 03:20:39;;;;;;;24.02;7.30;;;10.20;99.90;;;;;;5062725;28;20028;-63
2023/10/10 03:23:10;;;;;;;25.42;6.38;;;10.20;99.90;;;;;;5043904;28;20033;-63
2023/10/10 03:31:23;;;;;;;26.35;6.32;;;9.80;99.90;;;;;;5070000;28;20055;-62
2023/10/10 03:34:10;;;;;;;30.92;7.13;;;9.70;99.90;;;;;;5030209;28;20029;-62
2023/10/10 03:37:04;;;;;;;25.90;7.18;;;9.70;99.90;;;;;;5028806;28;20088;-63
2023/10/10 03:39:44;;;;;;;15.25;5.47;;;9.80;99.90;;;;;;5029328;28;20041;-63
2023/10/10 05:24:20;;;;;;;20.65;6.82;;;9.30;99.90;;;;;;5048145;28;20104;-62
2023/10/10 05:26:46;;;;;;;24.50;5.55;;;9.40;99.90;;;;;;5065792;28;20484;-62
2023/10/10 05:29:19;;;;;;;20.77;6.78;;;9.40;99.90;;;;;;5068649;28;20055;-62
2023/10/10 05:31:46;;;;;;;25.38;6.95;;;9.50;99.90;;;;;;5066868;28;20380;-62
2023/10/10 05:34:14;;;;;;;23.08;6.72;;;9.50;99.90;;;;;;5068186;28;20042;-62
2023/10/10 05:36:48;;;;;;;29.30;8.48;;;9.50;99.90;;;;;;5062708;28;20028;-62
2023/10/10 05:39:22;;;;;;;26.13;7.47;;;9.60;99.90;;;;;;5060626;28;20580;-62
2023/10/10 05:41:48;;;;;;;28.10;6.22;;;9.60;99.90;;;;;;5065493;28;20574;-63
2023/10/10 05:44:16;;;;;;;27.27;6.97;;;9.50;99.90;;;;;;5068248;28;20032;-63
2023/10/10 05:46:43;;;;;;;24.95;6.97;;;9.60;99.90;;;;;;5048062;28;20098;-63
2023/10/10 05:49:08;;;;;;;24.67;7.20;;;9.60;99.90;;;;;;5057739;28;20204;-63
2023/10/10 05:51:35;;;;;;;23.02;6.93;;;9.60;99.90;;;;;;5066685;28;20111;-62
2023/10/10 05:54:00;;;;;;;27.45;7.03;;;9.50;99.90;;;;;;5057168;28;20025;-62
2023/10/10 05:56:26;;;;;;;24.90;6.93;;;9.40;99.90;;;;;;5047961;28;20037;-62
2023/10/10 05:58:52;;;;;;;24.90;7.38;;;9.20;99.90;;;;;;5047033;28;20059;-62
2023/10/10 06:01:18;;;;;;;21.38;6.88;;;9.20;99.90;;;;;;5058749;28;20722;-62
2023/10/10 06:03:45;;;;;;;25.75;6.65;;;9.20;99.90;;;;;;5066870;28;20046;-62
2023/10/10 06:06:12;;;;;;;28.05;6.93;;;9.20;99.90;;;;;;5067662;28;20110;-63
2023/10/10 06:08:44;;;;;;;25.73;7.03;;;9.30;99.90;;;;;;5067388;28;20036;-63
2023/10/10 06:11:13;;;;;;;27.85;8.40;;;9.40;99.90;;;;;;5058435;28;20055;-62
2023/10/10 06:13:43;;;;;;;27.60;7.82;;;9.50;99.90;;;;;;5046987;28;20037;-63
2023/10/10 06:16:12;;;;;;;28.23;6.85;;;9.50;99.90;;;;;;5047963;28;20120;-62
2023/10/10 06:18:41;;;;;;;31.85;8.82;;;9.60;99.90;;;;;;5046876;28;20032;-62
2023/10/10 06:21:07;;;;;;;29.00;9.63;;;9.70;99.90;;;;;;5047771;28;20033;-63
2023/10/10 06:23:35;;;;;;;32.17;9.18;;;9.70;99.90;;;;;;5058191;28;20036;-63
2023/10/10 06:26:04;;;;;;;28.75;9.70;;;9.80;99.90;;;;;;5046552;28;20028;-62
2023/10/10 06:28:35;;;;;;;33.88;8.95;;;9.80;99.90;;;;;;5047440;28;20037;-62
2023/10/10 06:31:02;;;;;;;28.13;9.07;;;9.70;99.90;;;;;;5047796;28;20081;-63
2023/10/10 06:33:28;;;;;;;28.08;8.85;;;9.80;99.90;;;;;;5051980;28;20069;-63
2023/10/10 06:41:36;;;;;;;23.63;8.50;;;10.10;99.90;;;;;;5047513;28;20025;-63
2023/10/10 06:44:05;;;;;;;24.77;8.95;;;10.10;99.90;;;;;;5068491;28;20025;-63
2023/10/10 06:46:32;;;;;;;23.02;8.07;;;10.20;99.90;;;;;;5053372;28;20035;-63
2023/10/10 06:49:07;;;;;;;19.95;7.40;;;10.20;99.90;;;;;;5050666;28;20029;-63
2023/10/10 06:51:41;;;;;;;21.25;6.75;;;10.30;99.90;;;;;;5050757;28;20039;-63
2023/10/10 06:54:19;;;;;;;21.00;7.07;;;10.40;99.90;;;;;;5067802;28;20131;-63
2023/10/10 06:57:02;;;;;;;25.02;7.90;;;10.50;99.90;;;;;;5067549;28;20037;-63
2023/10/10 06:59:30;;;;;;;19.55;6.65;;;10.50;99.90;;;;;;5061695;28;20037;-63
2023/10/10 07:01:59;;;;;;;16.90;6.57;;;10.60;99.90;;;;;;5059364;28;20491;-63
2023/10/10 07:04:28;;;;;;;26.33;7.35;;;10.60;99.90;;;;;;5065221;28;20086;-63
2023/10/10 07:07:00;;;;;;;23.13;6.65;;;10.70;99.90;;;;;;5049733;28;20119;-63
2023/10/10 07:09:28;;;;;;;20.52;6.93;;;10.80;99.90;;;;;;5050563;28;20048;-63
2023/10/10 07:12:13;;;;;;;24.02;6.65;;;10.90;99.90;;;;;;5046765;28;20112;-63
2023/10/10 07:14:46;;;;;;;19.30;6.32;;;11.00;99.90;;;;;;5053954;28;20029;-63
2023/10/10 07:17:13;;;;;;;25.02;7.15;;;11.10;99.90;;;;;;5050570;28;20494;-63
2023/10/10 07:22:36;;;;;;;24.45;6.50;;;11.40;99.90;;;;;;5050340;28;20021;-63
2023/10/10 07:25:31;;;;;;;33.78;6.50;;;11.50;99.90;;;;;;5058445;28;20086;-63
2023/10/10 07:28:00;;;;;;;24.38;6.70;;;11.60;99.90;;;;;;5053028;28;20074;-63
2023/10/10 07:30:34;;;;;;;17.90;6.32;;;11.70;99.90;;;;;;5049981;28;20800;-63
2023/10/10 07:33:02;;;;;;;31.45;7.05;;;11.70;99.90;;;;;;5050120;28;20117;-63
2023/10/10 07:35:28;;;;;;;19.52;7.00;;;11.80;99.90;;;;;;5050193;28;20066;-63
2023/10/10 07:37:58;;;;;;;28.80;7.25;;;11.80;99.90;;;;;;5063470;28;20658;-63
2023/10/10 07:40:30;;;;;;;19.93;6.17;;;11.90;99.90;;;;;;5070105;28;20059;-63
2023/10/10 07:42:59;;;;;;;20.15;6.45;;;12.00;99.90;;;;;;5069410;28;20029;-63
2023/10/10 07:45:33;;;;;;;20.65;6.72;;;12.20;99.90;;;;;;5061493;28;20029;-63
2023/10/10 07:50:35;;;;;;;22.05;6.80;;;12.50;99.90;;;;;;5049148;28;20416;-64
2023/10/10 07:53:12;;;;;;;18.70;6.60;;;12.80;99.90;;;;;;5049355;28;20462;-63
2023/10/10 07:56:00;;;;;;;26.85;7.32;;;13.00;99.90;;;;;;5048552;28;20033;-64
2023/10/10 07:58:42;;;;;;;20.65;7.10;;;13.20;99.90;;;;;;5050282;28;20139;-63
2023/10/10 08:01:16;;;;;;;19.33;6.00;;;13.60;99.90;;;;;;5069800;28;20064;-64
2023/10/10 08:03:45;;;;;;;21.45;5.85;;;13.90;99.90;;;;;;5069016;28;20032;-63
2023/10/10 08:06:21;;;;;;;22.92;6.95;;;14.10;99.90;;;;;;5069388;28;20036;-64
2023/10/10 08:11:38;;;;;;;29.23;6.55;;;14.40;99.90;;;;;;5061181;28;20043;-64
2023/10/10 08:14:07;;;;;;;19.90;6.72;;;14.50;99.90;;;;;;5049178;28;20052;-64
2023/10/10 08:16:38;;;;;;;22.60;6.65;;;14.70;99.90;;;;;;5049404;28;20105;-64
2023/10/10 08:19:10;;;;;;;20.60;5.60;;;14.90;99.90;;;;;;5049197;28;20040;-64
2023/10/10 08:21:38;;;;;;;30.27;5.78;;;15.20;99.90;;;;;;5056745;28;20064;-64
2023/10/10 08:24:06;;;;;;;22.95;6.10;;;15.40;99.90;;;;;;5068469;28;20467;-64
2023/10/10 08:26:42;;;;;;;24.67;5.40;;;15.70;99.90;;;;;;5056510;28;20033;-64
2023/10/10 08:29:12;;;;;;;17.92;6.10;;;15.80;99.90;;;;;;5053514;28;20033;-64
2023/10/10 08:31:42;;;;;;;23.50;5.65;;;16.00;99.90;;;;;;5069007;28;20514;-64
2023/10/10 08:34:08;;;;;;;29.77;5.45;;;16.20;99.90;;;;;;5069215;28;20082;-64
2023/10/10 08:36:34;;;;;;;22.13;5.80;;;16.40;99.90;;;;;;5056612;28;20464;-64
2023/10/10 08:39:11;;;;;;;27.48;6.10;;;16.60;99.90;;;;;;5049366;28;20035;-64
2023/10/10 08:41:41;;;;;;;29.63;7.05;;;16.80;99.90;;;;;;5049384;28;20381;-64
2023/10/10 08:44:09;;;;;;;31.02;6.03;;;17.00;99.90;;;;;;5047578;28;20055;-64
2023/10/10 08:46:41;;;;;;;24.08;6.22;;;17.20;99.90;;;;;;5048753;28;20035;-64
2023/10/10 08:49:08;;;;;;;22.33;6.25;;;17.40;99.90;;;;;;5048867;28;20041;-64
2023/10/10 08:51:34;;;;;;;21.83;5.63;;;17.60;99.90;;;;;;5065956;28;20037;-64
2023/10/10 08:54:11;;;;;;;32.50;5.97;;;17.60;99.90;;;;;;5066249;28;20020;-64
2023/10/10 08:56:59;;;;;;;30.80;5.50;;;17.80;99.90;;;;;;5068467;28;20070;-65
2023/10/10 08:59:26;;;;;;;22.70;5.50;;;18.00;99.90;;;;;;5068732;28;20024;-64
2023/10/10 09:01:51;;;;;;;34.13;6.00;;;18.20;99.90;;;;;;5067888;28;20032;-65
2023/10/10 09:04:19;;;;;;;28.17;5.93;;;18.40;99.90;;;;;;5049193;28;20086;-65
2023/10/10 09:09:35;;;;;;;24.02;5.75;;;18.80;99.90;;;;;;5048839;28;20068;-65
2023/10/10 09:12:12;;;;;;;24.08;5.90;;;18.80;99.90;;;;;;5047758;28;20096;-65
2023/10/10 09:14:41;;;;;;;21.13;5.72;;;19.00;99.90;;;;;;5051296;28;20032;-65
2023/10/10 09:17:28;;;;;;;19.70;5.30;;;19.20;99.90;;;;;;5048324;28;20064;-65
2023/10/10 09:19:58;;;;;;;27.60;5.53;;;19.40;99.90;;;;;;5047791;28;20031;-65
2023/10/10 09:22:43;;;;;;;21.00;5.55;;;19.50;99.90;;;;;;5048470;28;20038;-65
2023/10/10 09:25:25;;;;;;;27.55;5.82;;;19.60;99.90;;;;;;5048278;28;20044;-65
2023/10/10 09:28:04;;;;;;;30.23;6.35;;;19.70;99.90;;;;;;5063514;28;20039;-65
2023/10/10 09:30:37;;;;;;;24.05;6.05;;;19.70;99.90;;;;;;5068598;28;20044;-65
2023/10/10 09:38:45;;;;;;;33.50;6.00;;;19.60;99.90;;;;;;5061049;28;20087;-64
2023/10/10 09:41:28;;;;;;;25.02;6.25;;;19.70;99.90;;;;;;5048316;28;20087;-64
2023/10/10 10:05:58;;;;;;;22.05;5.57;;;20.70;99.90;;;;;;5047229;28;20366;-64
2023/10/10 10:08:37;;;;;;;22.17;5.28;;;20.80;96.70;;;;;;5049113;28;20041;-64
2023/10/10 10:11:18;;;;;;;19.88;5.90;;;20.80;98.10;;;;;;5047119;28;20037;-64
2023/10/10 10:13:51;;;;;;;21.85;5.50;;;20.80;97.60;;;;;;5054279;28;20040;-65
2023/10/10 10:16:25;;;;;;;22.30;5.57;;;20.80;97.00;;;;;;5052326;28;20115;-64
2023/10/10 10:19:14;;;;;;;19.85;5.85;;;20.90;98.20;;;;;;5048427;28;20091;-65
2023/10/10 10:21:53;;;;;;;21.25;5.60;;;20.90;95.80;;;;;;5051430;28;20032;-64
2023/10/10 10:24:30;;;;;;;38.20;6.32;;;21.00;96.00;;;;;;5061765;28;20034;-64
2023/10/10 10:29:55;;;;;;;16.35;5.35;;;21.10;96.50;;;;;;5070724;28;20029;-65
2023/10/10 10:32:24;;;;;;;17.70;5.25;;;21.10;97.60;;;;;;5071687;28;20036;-65
2023/10/10 10:34:56;;;;;;;19.25;5.78;;;21.30;97.00;;;;;;5058350;28;20025;-65
2023/10/10 10:37:23;;;;;;;27.35;6.95;;;21.20;95.20;;;;;;5067922;28;20149;-64
2023/10/10 10:42:50;;;;;;;29.77;6.13;;;21.10;97.50;;;;;;5064741;28;20045;-64
2023/10/10 10:45:41;;;;;;;28.58;6.43;;;21.20;96.00;;;;;;5051058;28;20029;-64
2023/10/10 10:48:30;;;;;;;20.15;5.75;;;21.20;95.00;;;;;;5050402;28;20040;-65
2023/10/10 10:51:26;;;;;;;17.98;5.70;;;21.20;95.60;;;;;;5049848;28;20036;-65
2023/10/10 10:54:02;;;;;;;21.17;6.68;;;21.40;96.60;;;;;;5065931;28;20103;-64
2023/10/10 10:59:13;;;;;;;21.38;6.30;;;21.50;96.50;;;;;;5070266;28;20472;-65
2023/10/10 11:01:52;;;;;;;21.25;6.10;;;21.60;95.80;;;;;;5071101;28;20162;-65
2023/10/10 11:07:07;;;;;;;40.35;7.30;;;21.60;95.40;;;;;;5049867;28;20048;-65
2023/10/10 11:09:36;;;;;;;19.83;6.20;;;21.70;96.40;;;;;;5050900;28;20060;-65
2023/10/10 11:12:03;;;;;;;21.50;5.93;;;21.50;94.90;;;;;;5046681;28;20055;-64
2023/10/10 11:14:34;;;;;;;18.73;5.72;;;21.50;95.80;;;;;;5050313;28;20540;-65
2023/10/10 11:17:00;;;;;;;22.52;5.93;;;21.60;95.40;;;;;;5057193;28;20460;-64
2023/10/10 11:22:00;;;;;;;17.38;6.05;;;21.70;95.80;;;;;;5069787;28;20098;-65
2023/10/10 11:24:31;;;;;;;18.70;6.07;;;21.80;97.00;;;;;;5070521;28;20028;-64
2023/10/10 11:30:00;;;;;;;27.85;6.47;;;22.00;95.40;;;;;;5049835;28;20029;-64
2023/10/10 11:32:36;;;;;;;30.33;5.90;;;22.00;94.90;;;;;;5050324;28;20032;-65
2023/10/10 11:37:45;;;;;;;23.35;6.97;;;22.00;94.30;;;;;;5049848;28;20049;-64
2023/10/10 11:40:19;;;;;;;24.98;6.55;;;22.10;95.30;;;;;;5065233;28;20021;-65
2023/10/10 11:42:47;;;;;;;22.33;6.35;;;22.40;95.20;;;;;;5070094;28;20025;-64
2023/10/10 11:45:19;;;;;;;16.52;5.72;;;22.50;94.60;;;;;;5062169;28;20032;-65
2023/10/10 11:47:46;;;;;;;27.20;5.68;;;22.50;95.00;;;;;;5049958;28;20141;-66
2023/10/10 11:50:15;;;;;;;20.92;5.85;;;22.80;93.70;;;;;;5028990;28;20868;-65
2023/10/10 11:52:56;;;;;;;19.50;5.63;;;22.80;92.50;;;;;;5030318;28;20032;-65
2023/10/10 11:55:25;;;;;;;19.38;6.30;;;22.70;92.20;;;;;;5029916;28;20041;-65
2023/10/10 11:57:55;;;;;;;25.25;6.88;;;22.70;92.90;;;;;;5031426;28;20021;-65
2023/10/10 12:00:29;;;;;;;20.38;5.97;;;22.90;93.60;;;;;;5069727;28;20052;-65
2023/10/10 12:02:58;;;;;;;18.20;5.88;;;22.90;93.20;;;;;;5060481;28;20120;-65
2023/10/10 12:07:59;;;;;;;15.90;6.15;;;23.40;93.20;;;;;;5048573;28;20596;-66
2023/10/10 12:10:39;;;;;;;21.40;6.47;;;23.80;91.80;;;;;;5049503;28;20036;-65
2023/10/10 12:13:09;;;;;;;21.25;6.80;;;24.00;92.10;;;;;;5055563;28;20340;-65
2023/10/10 12:15:45;;;;;;;22.90;5.93;;;24.10;92.40;;;;;;5059601;28;20405;-65
2023/10/10 12:18:10;;;;;;;18.25;5.63;;;23.90;90.90;;;;;;5048485;28;20477;-65
2023/10/10 12:20:42;;;;;;;17.77;5.93;;;23.80;89.80;;;;;;5049330;28;20047;-64
2023/10/10 12:23:08;;;;;;;21.55;5.75;;;23.80;88.90;;;;;;5054684;28;20028;-65
2023/10/10 12:25:37;;;;;;;22.88;6.85;;;23.90;91.90;;;;;;5069215;28;20028;-65
2023/10/10 12:28:03;;;;;;;26.67;6.40;;;23.90;90.70;;;;;;5068177;28;20186;-65
2023/10/10 12:30:29;;;;;;;22.77;6.72;;;24.10;91.10;;;;;;5069096;28;20024;-65
2023/10/10 12:32:56;;;;;;;24.23;6.97;;;24.10;88.90;;;;;;5064538;28;20035;-65
2023/10/10 12:35:25;;;;;;;19.40;6.25;;;24.10;87.10;;;;;;5049017;28;20033;-64
2023/10/10 12:38:00;;;;;;;19.40;6.30;;;24.20;85.00;;;;;;5053251;28;20045;-65
2023/10/10 12:40:27;;;;;;;23.88;7.22;;;24.10;85.70;;;;;;5029129;28;20041;-64
2023/10/10 12:42:52;;;;;;;23.23;7.00;;;24.00;82.70;;;;;;5028266;28;20021;-65
2023/10/10 12:45:19;;;;;;;19.83;6.78;;;24.10;82.40;;;;;;5035829;28;20417;-65
2023/10/10 12:47:45;;;;;;;24.05;7.88;;;24.10;79.00;;;;;;5059435;28;20443;-65
2023/10/10 12:50:14;;;;;;;26.48;8.50;;;24.00;75.00;;;;;;5067838;28;20021;-65
2023/10/10 12:52:46;;;;;;;29.15;8.20;;;24.20;68.40;;;;;;5068541;28;20119;-65
2023/10/10 12:55:12;;;;;;;23.52;8.43;;;24.10;72.30;;;;;;5067827;28;20878;-65
2023/10/10 12:57:39;;;;;;;21.83;7.53;;;24.20;71.10;;;;;;5056265;28;20033;-65
2023/10/10 13:00:23;;;;;;;29.70;8.93;;;24.40;73.90;;;;;;5047668;28;20086;-65
2023/10/10 13:02:53;;;;;;;29.02;8.02;;;24.40;73.60;;;;;;5048569;28;20040;-65
2023/10/10 13:05:26;;;;;;;29.88;9.13;;;24.30;75.80;;;;;;5047989;28;20033;-65
2023/10/10 13:07:55;;;;;;;28.25;8.93;;;24.10;74.50;;;;;;5047194;28;20045;-65
2023/10/10 13:10:26;;;;;;;30.77;8.23;;;24.20;73.70;;;;;;5049243;28;20075;-64
2023/10/10 13:12:53;;;;;;;26.23;8.43;;;24.30;79.10;;;;;;5048481;28;20039;-65
2023/10/10 13:15:27;;;;;;;26.58;9.18;;;24.40;67.10;;;;;;5055464;28;20033;-65
2023/10/10 13:17:53;;;;;;;26.55;8.18;;;24.50;69.40;;;;;;5048398;28;20029;-65
2023/10/10 13:20:21;;;;;;;29.17;9.38;;;24.50;71.80;;;;;;5047785;28;20036;-65
2023/10/10 13:22:53;;;;;;;24.58;7.22;;;24.50;73.60;;;;;;5048025;28;20382;-65
2023/10/10 13:25:22;;;;;;;28.52;8.27;;;24.40;71.40;;;;;;5062661;28;20103;-65
2023/10/10 13:27:52;;;;;;;32.03;7.53;;;24.40;73.20;;;;;;5068381;28;20032;-65
2023/10/10 13:30:18;;;;;;;20.58;8.02;;;24.40;70.50;;;;;;5067123;28;20032;-65
2023/10/10 13:32:44;;;;;;;29.95;8.02;;;24.20;71.40;;;;;;5068306;28;20074;-65
2023/10/10 13:35:10;;;;;;;21.77;7.32;;;24.10;72.00;;;;;;5053713;28;20037;-66
2023/10/10 13:37:40;;;;;;;23.48;8.05;;;24.10;71.70;;;;;;5047756;28;20144;-65
2023/10/10 13:40:07;;;;;;;26.05;9.00;;;24.10;74.30;;;;;;5047273;28;20044;-65
2023/10/10 13:42:33;;;;;;;29.23;8.60;;;24.00;72.70;;;;;;5048126;28;20414;-65
2023/10/10 13:45:10;;;;;;;22.92;7.35;;;23.90;76.70;;;;;;5047346;28;20112;-65
2023/10/10 13:47:40;;;;;;;21.70;7.05;;;23.90;71.90;;;;;;5065249;28;20041;-64
2023/10/10 13:52:51;;;;;;;21.58;7.65;;;23.80;75.00;;;;;;5067849;28;20097;-65
2023/10/10 13:55:18;;;;;;;24.05;8.25;;;23.70;69.70;;;;;;5071304;28;20262;-65
2023/10/10 13:57:44;;;;;;;24.65;8.02;;;23.70;75.30;;;;;;5054600;28;20132;-65
2023/10/10 14:00:33;;;;;;;24.02;7.78;;;23.80;76.80;;;;;;5040825;28;20108;-65
2023/10/10 14:03:05;;;;;;;24.40;7.32;;;23.90;79.50;;;;;;5058960;28;20480;-65
2023/10/10 14:05:34;;;;;;;20.70;7.70;;;24.00;75.70;;;;;;5069037;28;20043;-65
2023/10/10 14:08:02;;;;;;;24.58;7.93;;;23.90;72.20;;;;;;5053652;28;20040;-65
2023/10/10 14:10:37;;;;;;;22.90;8.35;;;23.90;71.00;;;;;;5064913;28;20036;-65
2023/10/10 14:13:18;;;;;;;21.17;7.78;;;23.80;69.60;;;;;;5071018;28;20101;-65
2023/10/10 14:15:57;;;;;;;25.40;7.63;;;23.70;72.10;;;;;;5060879;28;20051;-65
2023/10/10 14:18:31;;;;;;;23.33;7.93;;;23.60;73.10;;;;;;5051419;28;20033;-65
2023/10/10 14:21:05;;;;;;;27.15;8.38;;;23.50;71.60;;;;;;5066996;28;20048;-65
2023/10/10 14:23:35;;;;;;;29.35;8.30;;;23.40;70.90;;;;;;5069652;28;20025;-65
2023/10/10 14:26:14;;;;;;;19.80;7.70;;;23.40;75.60;;;;;;5063591;28;20473;-65
2023/10/10 14:28:50;;;;;;;23.02;7.93;;;23.40;77.10;;;;;;5052868;28;20048;-65
2023/10/10 14:31:31;;;;;;;23.83;7.78;;;23.40;79.10;;;;;;5069600;28;20032;-65
2023/10/10 14:34:00;;;;;;;;;;;23.30;75.00;;;;;;5072067;28;20036;-65
2023/10/10 14:36:27;;;;;;;22.92;7.50;;;23.30;76.70;;;;;;5071017;28;19909;-65
2023/10/10 14:38:53;;;;;;;24.92;7.85;;;23.20;75.60;;;;;;5071495;28;20161;-65
2023/10/10 14:41:20;;;;;;;24.77;7.95;;;23.10;73.10;;;;;;5052256;28;20037;-65
2023/10/10 14:43:47;;;;;;;32.10;7.93;;;23.20;77.10;;;;;;5051309;28;20028;-65
2023/10/10 14:46:21;;;;;;;20.90;7.25;;;23.30;77.30;;;;;;5050283;28;20079;-65
2023/10/10 14:51:40;;;;;;;23.85;7.68;;;23.40;78.90;;;;;;5051200;28;20551;-65
2023/10/10 14:54:12;;;;;;;21.40;7.50;;;23.60;83.00;;;;;;5049966;28;20029;-66
2023/10/10 14:56:51;;;;;;;25.40;8.43;;;23.70;83.10;;;;;;5052447;28;20495;-67
2023/10/10 14:59:25;;;;;;;27.60;7.90;;;23.80;85.80;;;;;;5056305;28;20539;-67
2023/10/10 15:01:52;;;;;;;19.23;7.10;;;23.90;84.70;;;;;;5051421;28;20040;-67
2023/10/10 15:04:20;;;;;;;22.63;6.93;;;23.90;81.50;;;;;;5061025;28;20036;-67
2023/10/10 15:06:47;;;;;;;24.50;7.30;;;23.90;82.70;;;;;;5070424;28;20079;-67
2023/10/10 15:09:14;;;;;;;23.00;8.20;;;23.80;81.50;;;;;;5061602;28;20032;-67
2023/10/10 15:11:41;;;;;;;25.45;7.07;;;23.70;82.30;;;;;;5069345;28;20103;-67
2023/10/10 15:14:09;;;;;;;23.90;7.38;;;23.50;84.70;;;;;;5032017;28;20038;-67
2023/10/10 15:16:36;;;;;;;20.60;7.95;;;23.40;83.60;;;;;;5048673;28;20116;-66
2023/10/10 15:19:03;;;;;;;22.35;7.00;;;23.20;87.70;;;;;;5054224;28;20746;-67
2023/10/10 15:21:32;;;;;;;26.48;7.85;;;23.30;87.50;;;;;;5051385;28;20679;-67
2023/10/10 15:23:59;;;;;;;24.67;7.25;;;23.30;84.80;;;;;;5050530;28;20024;-67
2023/10/10 15:26:25;;;;;;;23.33;7.55;;;23.30;84.00;;;;;;5050400;28;20033;-67
2023/10/10 15:28:52;;;;;;;19.30;6.65;;;23.20;83.20;;;;;;5070467;28;20039;-67
2023/10/10 15:31:24;;;;;;;19.98;7.43;;;23.10;85.80;;;;;;5069530;28;20043;-67
2023/10/10 15:33:53;;;;;;;20.08;6.72;;;23.00;84.10;;;;;;5070497;28;20036;-67
2023/10/10 15:36:19;;;;;;;22.73;7.47;;;23.00;84.10;;;;;;5061031;28;20040;-67
2023/10/10 15:38:45;;;;;;;25.42;7.93;;;23.10;80.20;;;;;;5069804;28;20455;-67
2023/10/10 15:41:19;;;;;;;22.35;7.68;;;23.20;79.50;;;;;;5053041;28;20029;-67
2023/10/10 15:43:48;;;;;;;22.42;8.13;;;23.20;80.20;;;;;;5050192;28;20116;-67
2023/10/10 15:46:15;;;;;;;18.80;7.20;;;23.10;80.20;;;;;;5049283;28;20043;-66
2023/10/10 15:48:42;;;;;;;21.67;7.15;;;23.00;79.60;;;;;;5049917;28;20366;-67
2023/10/10 15:51:08;;;;;;;21.40;6.80;;;23.00;79.80;;;;;;5064166;28;20029;-67
2023/10/10 15:53:42;;;;;;;21.00;7.43;;;23.00;81.20;;;;;;5070022;28;20037;-66
2023/10/10 15:56:10;;;;;;;21.88;7.20;;;22.80;82.40;;;;;;5069275;28;20032;-67
2023/10/10 15:58:39;;;;;;;23.15;7.30;;;22.40;83.70;;;;;;5069914;28;20083;-66
2023/10/10 16:01:14;;;;;;;20.10;7.97;;;22.00;84.70;;;;;;5069654;28;20107;-67
2023/10/10 16:03:47;;;;;;;22.92;7.57;;;21.60;86.80;;;;;;5050736;28;20120;-67
2023/10/10 16:06:18;;;;;;;22.40;7.72;;;21.20;87.20;;;;;;5027673;28;20076;-67
2023/10/10 16:08:47;;;;;;;25.60;7.68;;;20.80;87.90;;;;;;5030004;28;20025;-66
2023/10/10 16:11:13;;;;;;;24.00;6.80;;;20.50;89.30;;;;;;5047429;28;20025;-66
2023/10/10 16:13:38;;;;;;;22.02;7.00;;;20.30;90.40;;;;;;5049681;28;20021;-66
2023/10/10 16:16:08;;;;;;;25.98;7.65;;;20.20;90.90;;;;;;5053106;28;20059;-66
2023/10/10 16:18:34;;;;;;;22.65;6.65;;;20.20;91.00;;;;;;5049216;28;20420;-66
2023/10/10 16:21:04;;;;;;;25.10;7.57;;;20.10;92.00;;;;;;5064148;28;20393;-66